Time;durP1;ratioP1;P1;durP2;ratioP2;P2;SDS_P1;SDS_P2;PMS_P1;PMS_P2;Temp;Humidity;BMP_temperature;BMP_pressure;BME280_temperature;BME280_humidity;BME280_pressure;Samples;Min_cycle;Max_cycle;Signal;HPM_P1;HPM_P2
2023/05/13 00:01:19;;;;;;;;;8.00;7.33;;;;;25.54;41.08;101855.28;6305470;22;45364;-75
2023/05/13 00:03:45;;;;;;;;;11.67;8.33;;;;;25.52;41.06;101852.81;6305087;22;46183;-74
2023/05/13 00:06:10;;;;;;;;;10.00;9.00;;;;;25.52;41.31;101860.81;6304328;22;45353;-75
2023/05/13 00:08:35;;;;;;;;;9.67;8.00;;;;;25.54;41.10;101860.63;6305563;22;45269;-75
2023/05/13 00:11:01;;;;;;;;;10.67;8.67;;;;;25.48;40.90;101856.84;6304892;22;45279;-74
2023/05/13 00:13:26;;;;;;;;;10.67;7.67;;;;;25.54;41.17;101857.13;6304203;22;46368;-74
2023/05/13 00:15:52;;;;;;;;;9.00;7.33;;;;;25.49;41.35;101858.50;6305392;22;45353;-75
2023/05/13 00:18:17;;;;;;;;;9.33;9.00;;;;;25.49;41.32;101855.84;6304922;22;45189;-74
2023/05/13 00:20:43;;;;;;;;;11.00;9.00;;;;;25.40;41.15;101855.06;6305261;22;45396;-75
2023/05/13 00:23:08;;;;;;;;;7.67;7.67;;;;;25.35;41.27;101837.94;6305057;22;46027;-75
2023/05/13 00:25:34;;;;;;;;;9.33;9.33;;;;;25.44;41.20;101865.38;6303098;22;45198;-74
2023/05/13 00:27:59;;;;;;;;;8.33;7.00;;;;;25.47;41.05;101868.50;6305066;22;45304;-74
2023/05/13 00:30:25;;;;;;;;;10.33;9.67;;;;;25.35;41.25;101860.09;6305287;22;45464;-74
2023/05/13 00:32:50;;;;;;;;;10.33;8.33;;;;;25.34;40.89;101855.78;6305072;22;45356;-75
2023/05/13 00:35:16;;;;;;;;;8.00;8.00;;;;;25.47;41.20;101867.69;6304732;22;45256;-75
2023/05/13 00:37:41;;;;;;;;;10.33;8.00;;;;;25.46;41.19;101866.00;6305339;22;45290;-75
2023/05/13 00:40:23;;;;;;;;;11.00;9.00;;;;;25.46;41.20;101861.53;6305242;22;45292;-74
2023/05/13 00:42:49;;;;;;;;;9.00;8.00;;;;;25.44;41.12;101858.22;6304078;22;46092;-75
2023/05/13 00:45:15;;;;;;;;;11.33;8.33;;;;;25.37;41.20;101862.59;6304657;22;45324;-74
2023/05/13 00:47:41;;;;;;;;;11.33;8.00;;;;;25.37;41.18;101862.59;6305122;22;45309;-75
2023/05/13 00:50:09;;;;;;;;;9.33;8.00;;;;;25.29;40.93;101847.50;6304602;22;45477;-75
2023/05/13 00:52:36;;;;;;;;;9.00;9.00;;;;;25.29;41.06;101850.19;6305051;22;45368;-75
2023/05/13 00:55:03;;;;;;;;;10.00;8.00;;;;;25.37;40.78;101868.72;6304876;22;45267;-75
2023/05/13 00:57:29;;;;;;;;;12.67;11.33;;;;;25.33;41.20;101861.28;6304628;22;45253;-75
2023/05/13 00:59:54;;;;;;;;;9.33;8.00;;;;;25.40;40.67;101871.03;6302925;22;45422;-75
2023/05/13 01:02:30;;;;;;;;;9.33;8.33;;;;;25.47;40.92;101881.00;6304496;22;46175;-75
2023/05/13 01:05:01;;;;;;;;;7.67;7.67;;;;;25.48;40.74;101871.97;6304546;22;45388;-75
2023/05/13 01:07:45;;;;;;;;;11.00;8.00;;;;;25.47;41.13;101875.66;6305026;22;45223;-73
2023/05/13 01:10:30;;;;;;;;;8.67;7.33;;;;;25.47;41.00;101873.84;6304472;22;45399;-75
2023/05/13 01:13:00;;;;;;;;;8.33;7.33;;;;;25.39;41.31;101861.41;6304504;22;46266;-75
2023/05/13 01:15:28;;;;;;;;;13.00;8.33;;;;;25.37;40.75;101859.94;6304838;22;45178;-74
2023/05/13 01:18:02;;;;;;;;;9.00;8.67;;;;;25.44;40.90;101871.53;6305174;22;45275;-75
2023/05/13 01:20:29;;;;;;;;;9.67;8.33;;;;;25.44;40.93;101876.84;6304363;22;45465;-74
2023/05/13 01:22:55;;;;;;;;;9.33;9.00;;;;;25.34;40.76;101861.13;6304214;22;46535;-75
2023/05/13 01:25:21;;;;;;;;;8.00;7.67;;;;;25.36;40.80;101864.44;6303846;22;45233;-75
2023/05/13 01:27:47;;;;;;;;;10.67;10.67;;;;;25.42;41.27;101872.72;6304826;22;45241;-74
2023/05/13 01:30:13;;;;;;;;;10.67;9.00;;;;;25.33;40.63;101863.94;6305025;22;45402;-74
2023/05/13 01:32:39;;;;;;;;;11.00;10.33;;;;;25.32;40.96;101859.66;6304452;22;46385;-75
2023/05/13 01:35:06;;;;;;;;;10.33;7.67;;;;;25.37;40.87;101873.25;6304552;22;45186;-74
2023/05/13 01:37:32;;;;;;;;;10.00;8.00;;;;;25.38;40.82;101878.41;6304640;22;45553;-75
2023/05/13 01:39:57;;;;;;;;;10.67;8.00;;;;;25.38;41.01;101874.91;6304380;22;45398;-75
2023/05/13 01:42:24;;;;;;;;;9.33;8.00;;;;;25.37;40.96;101871.41;6304689;22;45252;-75
2023/05/13 01:44:52;;;;;;;;;11.67;9.00;;;;;25.26;40.99;101859.34;6304179;22;45303;-74
2023/05/13 01:47:17;;;;;;;;;8.00;7.33;;;;;25.34;40.89;101870.94;6304483;22;45265;-75
2023/05/13 01:49:43;;;;;;;;;10.67;8.00;;;;;25.36;40.94;101874.25;6304706;22;45372;-75
2023/05/13 01:52:08;;;;;;;;;10.00;9.00;;;;;25.32;41.22;101883.63;6303119;22;47087;-75
2023/05/13 01:54:34;;;;;;;;;11.00;9.33;;;;;25.36;40.97;101876.91;6304466;22;45303;-74
2023/05/13 01:56:59;;;;;;;;;9.33;8.67;;;;;25.23;40.99;101881.00;6304593;22;45303;-75
2023/05/13 01:59:25;;;;;;;;;7.00;7.00;;;;;25.35;40.85;101894.72;6304393;22;45234;-75
2023/05/13 02:01:50;;;;;;;;;9.67;9.00;;;;;25.31;41.09;101890.78;6304902;22;45349;-74
2023/05/13 02:04:15;;;;;;;;;6.67;6.67;;;;;25.21;40.90;101875.03;6304750;22;45475;-75
2023/05/13 02:06:41;;;;;;;;;7.00;7.00;;;;;25.31;40.92;101895.25;6304439;22;45205;-74
2023/05/13 02:09:07;;;;;;;;;7.67;7.67;;;;;25.33;40.88;101896.75;6303943;22;45198;-75
2023/05/13 02:11:32;;;;;;;;;11.33;11.33;;;;;25.36;40.75;101899.06;6304008;22;46173;-74
2023/05/13 02:13:57;;;;;;;;;10.67;10.33;;;;;25.36;40.73;101893.72;6304808;22;45280;-75
2023/05/13 02:16:23;;;;;;;;;8.33;7.67;;;;;25.32;40.72;101897.75;6304732;22;45380;-75
2023/05/13 02:18:48;;;;;;;;;8.67;8.67;;;;;25.38;40.64;101909.53;6304170;22;50500;-74
2023/05/13 02:21:13;;;;;;;;;11.00;8.67;;;;;25.33;40.53;101901.25;6303961;22;47074;-75
2023/05/13 02:23:39;;;;;;;;;11.00;9.00;;;;;25.39;40.48;101905.88;6303570;22;45314;-73
2023/05/13 02:26:04;;;;;;;;;9.00;8.00;;;;;25.39;40.73;101911.19;6304661;22;45264;-74
2023/05/13 02:28:29;;;;;;;;;10.67;9.00;;;;;25.38;40.57;101901.53;6304278;22;45419;-75
2023/05/13 02:30:55;;;;;;;;;10.33;8.00;;;;;25.36;40.80;101912.38;6303915;22;45975;-74
2023/05/13 02:33:20;;;;;;;;;12.00;10.00;;;;;25.38;40.85;101915.69;6304376;22;45382;-74
2023/05/13 02:35:45;;;;;;;;;9.67;9.00;;;;;25.33;40.62;101914.56;6304604;22;45253;-75
2023/05/13 02:38:11;;;;;;;;;10.00;10.00;;;;;25.27;40.62;101898.28;6304091;22;45364;-74
2023/05/13 02:40:37;;;;;;;;;8.33;8.00;;;;;25.37;40.68;101908.69;6303847;22;46956;-74
2023/05/13 02:43:02;;;;;;;;;10.67;7.67;;;;;25.36;40.87;101909.72;6303837;22;45122;-74
2023/05/13 02:45:28;;;;;;;;;8.33;8.00;;;;;25.35;40.85;101917.88;6304069;22;45162;-74
2023/05/13 02:47:53;;;;;;;;;9.00;8.00;;;;;25.34;41.07;101910.91;6304183;22;45455;-75
2023/05/13 02:50:19;;;;;;;;;14.00;10.00;;;;;25.24;40.83;101895.16;6301954;22;47470;-74
2023/05/13 02:52:44;;;;;;;;;10.00;8.67;;;;;25.31;41.02;101916.56;6303550;22;45148;-75
2023/05/13 02:55:10;;;;;;;;;15.50;11.00;;;;;25.33;40.83;101918.06;6304399;22;45727;-75
2023/05/13 02:57:36;;;;;;;;;11.33;10.33;;;;;25.32;40.85;101926.22;6303800;22;45198;-75
2023/05/13 03:00:03;;;;;;;;;9.33;8.33;;;;;25.26;40.78;101915.28;6303705;22;46588;-74
2023/05/13 03:02:29;;;;;;;;;11.00;7.67;;;;;25.29;40.85;101922.88;6303494;22;45371;-75
2023/05/13 03:04:55;;;;;;;;;9.00;8.00;;;;;25.30;40.86;101921.06;6303608;22;45340;-74
2023/05/13 03:07:21;;;;;;;;;8.00;8.00;;;;;25.23;41.23;101910.31;6303458;22;45495;-75
2023/05/13 03:09:46;;;;;;;;;8.33;6.67;;;;;25.29;41.10;101914.09;6303300;22;46072;-74
2023/05/13 03:12:12;;;;;;;;;11.33;9.00;;;;;25.28;40.72;101918.59;6304083;22;45214;-75
2023/05/13 03:14:38;;;;;;;;;9.67;9.00;;;;;25.24;40.87;101917.25;6303903;22;45192;-74
2023/05/13 03:17:04;;;;;;;;;10.00;10.00;;;;;25.26;41.01;101912.63;6303789;22;45220;-75
2023/05/13 03:19:30;;;;;;;;;4.00;4.00;;;;;25.23;40.58;101918.28;6303251;22;45862;-75
2023/05/13 03:21:55;;;;;;;;;9.33;9.33;;;;;25.27;40.44;101918.75;6303440;22;45237;-74
2023/05/13 03:24:20;;;;;;;;;9.67;8.67;;;;;25.27;40.58;101924.91;6304212;22;45221;-74
2023/05/13 03:26:46;;;;;;;;;7.33;7.33;;;;;25.28;40.61;101926.56;6304140;22;45207;-75
2023/05/13 03:29:11;;;;;;;;;10.00;10.00;;;;;25.31;40.72;101929.88;6303331;22;47337;-75
2023/05/13 03:31:36;;;;;;;;;10.67;9.33;;;;;25.32;40.39;101927.03;6303647;22;46237;-75
2023/05/13 03:34:02;;;;;;;;;9.67;8.67;;;;;25.33;40.61;101928.72;6301829;22;45328;-74
2023/05/13 03:36:27;;;;;;;;;9.67;9.00;;;;;25.34;40.67;101934.88;6303423;22;45407;-74
2023/05/13 03:38:52;;;;;;;;;9.67;7.67;;;;;25.35;40.52;101929.34;6303374;22;46029;-75
2023/05/13 03:41:18;;;;;;;;;10.67;10.00;;;;;25.36;40.50;101935.50;6304476;22;45334;-74
2023/05/13 03:43:43;;;;;;;;;10.00;8.67;;;;;25.33;40.34;101925.22;6303593;22;45402;-75
2023/05/13 03:46:09;;;;;;;;;8.33;8.33;;;;;25.37;40.50;101942.50;6277266;22;45420;-75
2023/05/13 03:48:35;;;;;;;;;9.67;9.33;;;;;25.26;40.97;101922.44;6304893;22;46976;-75
2023/05/13 03:51:01;;;;;;;;;8.33;8.33;;;;;25.32;40.54;101939.56;6304416;22;45574;-75
2023/05/13 03:53:26;;;;;;;;;9.33;8.33;;;;;25.33;40.46;101941.19;6305295;22;45310;-75
2023/05/13 03:55:51;;;;;;;;;11.00;9.00;;;;;25.31;40.86;101930.72;6305640;22;45240;-75
2023/05/13 03:58:17;;;;;;;;;10.00;9.33;;;;;25.16;40.94;101920.00;6304727;22;47010;-75
2023/05/13 04:00:46;;;;;;;;;10.00;8.33;;;;;25.29;40.71;101935.41;6304802;22;45309;-75
2023/05/13 04:03:16;;;;;;;;;8.00;7.00;;;;;25.20;40.55;101926.63;6305043;22;45213;-74
2023/05/13 04:05:42;;;;;;;;;12.67;10.00;;;;;25.25;40.81;101936.75;6304384;22;45363;-75
2023/05/13 04:08:07;;;;;;;;;8.33;8.33;;;;;25.26;40.79;101947.25;6304615;22;47093;-75
2023/05/13 04:10:33;;;;;;;;;9.67;9.67;;;;;25.25;40.76;101942.91;6305212;22;45217;-76
2023/05/13 04:12:58;;;;;;;;;11.33;9.33;;;;;25.25;40.61;101953.56;6305034;22;45700;-74
2023/05/13 04:15:23;;;;;;;;;11.00;9.00;;;;;25.25;41.07;101950.91;6305506;22;45402;-74
2023/05/13 04:17:50;;;;;;;;;8.00;8.00;;;;;25.19;40.72;101943.59;6304728;22;47367;-75
2023/05/13 04:20:15;;;;;;;;;10.67;8.00;;;;;25.20;40.70;101944.44;6304396;22;45295;-74
2023/05/13 04:22:41;;;;;;;;;10.67;9.00;;;;;25.25;40.68;101952.72;6305310;22;45264;-75
2023/05/13 04:25:06;;;;;;;;;8.33;8.33;;;;;24.97;41.12;101903.44;6305175;22;45530;-74
2023/05/13 04:27:32;;;;;;;;;7.67;7.67;;;;;25.24;40.65;101946.56;6304729;22;46104;-74
2023/05/13 04:29:57;;;;;;;;;9.00;7.67;;;;;25.22;40.58;101951.25;6304676;22;45296;-74
2023/05/13 04:32:22;;;;;;;;;9.00;9.00;;;;;25.24;40.91;101961.75;6305111;22;45301;-75
2023/05/13 04:34:48;;;;;;;;;8.67;8.67;;;;;25.18;40.64;101958.75;6302736;22;45555;-75
2023/05/13 04:37:13;;;;;;;;;9.67;8.00;;;;;25.23;40.66;101963.56;6305179;22;45319;-75
2023/05/13 04:39:39;;;;;;;;;8.00;8.00;;;;;25.14;40.41;101956.59;6305030;22;45406;-75
2023/05/13 04:42:05;;;;;;;;;8.00;7.33;;;;;25.16;40.30;101958.09;6304923;22;45580;-75
2023/05/13 04:44:31;;;;;;;;;9.00;8.00;;;;;25.20;40.31;101966.56;6304758;22;45443;-75
2023/05/13 04:46:56;;;;;;;;;8.00;8.00;;;;;25.25;40.54;101969.53;6304457;22;46151;-74
2023/05/13 04:49:21;;;;;;;;;12.00;10.00;;;;;25.19;40.56;101964.91;6304547;22;45353;-74
2023/05/13 04:51:47;;;;;;;;;9.33;8.00;;;;;25.27;40.69;101980.00;6304586;22;45269;-75
2023/05/13 04:54:12;;;;;;;;;12.00;10.67;;;;;25.28;40.59;101981.69;6305186;22;45336;-75
2023/05/13 04:56:37;;;;;;;;;13.00;11.00;;;;;25.23;40.20;101976.03;6304925;22;45876;-75
2023/05/13 04:59:02;;;;;;;;;8.00;6.33;;;;;25.26;40.37;101976.53;6304903;22;45171;-74
2023/05/13 05:01:28;;;;;;;;;11.25;11.25;;;;;25.29;40.33;101989.47;6305231;22;45164;-75
2023/05/13 05:03:53;;;;;;;;;9.00;9.00;;;;;25.31;40.55;101991.16;6303446;22;45379;-74
2023/05/13 05:06:19;;;;;;;;;9.67;9.67;;;;;25.31;40.47;101996.47;6304639;22;45780;-74
2023/05/13 05:08:44;;;;;;;;;9.00;8.00;;;;;25.29;40.22;102002.78;6304445;22;45244;-74
2023/05/13 05:11:09;;;;;;;;;8.00;8.00;;;;;25.25;40.29;101996.16;6305178;22;45190;-75
2023/05/13 05:13:35;;;;;;;;;10.00;9.00;;;;;25.14;40.30;101980.56;6304730;22;45162;-76
2023/05/13 05:16:00;;;;;;;;;9.00;9.00;;;;;25.23;40.50;102003.50;6304314;22;46816;-75
2023/05/13 05:18:25;;;;;;;;;7.00;7.00;;;;;25.29;40.56;102007.31;6304020;22;45145;-74
2023/05/13 05:20:51;;;;;;;;;7.00;7.00;;;;;24.94;40.56;101952.53;6304765;22;45343;-75
2023/05/13 05:23:16;;;;;;;;;7.67;7.33;;;;;25.27;40.62;102010.13;6305121;22;45249;-75
2023/05/13 05:25:41;;;;;;;;;10.67;8.00;;;;;25.17;40.57;101999.72;6304767;22;45245;-74
2023/05/13 05:28:08;;;;;;;;;6.67;6.00;;;;;25.16;40.84;102003.34;6304883;22;45300;-74
2023/05/13 05:30:38;;;;;;;;;7.33;7.33;;;;;25.23;40.47;102016.81;6304657;22;45275;-75
2023/05/13 05:33:05;;;;;;;;;9.33;9.00;;;;;25.24;40.68;102021.13;6304057;22;45435;-75
2023/05/13 05:35:32;;;;;;;;;8.67;7.33;;;;;25.22;40.90;102025.81;6304040;22;47251;-76
2023/05/13 05:37:58;;;;;;;;;9.00;9.00;;;;;25.17;40.63;102013.03;6304439;22;45349;-75
2023/05/13 05:40:23;;;;;;;;;12.33;8.00;;;;;25.16;40.70;102022.00;6304392;22;45273;-74
2023/05/13 05:42:48;;;;;;;;;7.00;7.00;;;;;25.13;40.70;102013.53;6305021;22;45344;-76
2023/05/13 05:45:14;;;;;;;;;9.00;9.00;;;;;25.17;40.31;102029.00;6304045;22;46113;-75
2023/05/13 05:47:39;;;;;;;;;11.67;9.00;;;;;25.10;40.50;102011.22;6303881;22;45351;-75
2023/05/13 05:50:05;;;;;;;;;9.00;7.67;;;;;25.17;40.45;102018.34;6304721;22;45940;-75
2023/05/13 05:52:30;;;;;;;;;8.00;6.33;;;;;25.20;40.59;102030.50;6305036;22;45304;-75
2023/05/13 05:54:55;;;;;;;;;7.67;7.00;;;;;25.20;40.62;102038.47;6304352;22;46185;-74
2023/05/13 05:57:21;;;;;;;;;7.00;7.00;;;;;25.15;40.65;102024.84;6305149;22;45218;-74
2023/05/13 05:59:46;;;;;;;;;11.33;8.67;;;;;25.19;40.84;102034.13;6304926;22;45295;-75
2023/05/13 06:02:11;;;;;;;;;10.00;10.00;;;;;25.22;40.29;102040.94;6304099;22;45300;-75
2023/05/13 06:04:37;;;;;;;;;7.33;7.33;;;;;25.23;40.46;102050.63;6303940;22;45936;-74
2023/05/13 06:07:02;;;;;;;;;9.00;8.33;;;;;25.19;40.01;102042.13;6304292;22;45237;-74
2023/05/13 06:09:27;;;;;;;;;11.33;9.33;;;;;25.23;40.46;102050.63;6304736;22;45233;-75
2023/05/13 06:11:53;;;;;;;;;7.00;7.00;;;;;25.14;40.42;102036.50;6304341;22;45326;-74
2023/05/13 06:14:18;;;;;;;;;8.00;8.00;;;;;25.29;40.34;102053.41;6304040;22;47316;-75
2023/05/13 06:16:44;;;;;;;;;9.33;8.33;;;;;25.31;40.61;102060.41;6303971;22;45229;-74
2023/05/13 06:19:09;;;;;;;;;10.00;9.00;;;;;25.20;40.22;102043.81;6304643;22;45217;-75
2023/05/13 06:21:35;;;;;;;;;9.67;6.00;;;;;25.10;40.58;102027.19;6304172;22;45100;-74
2023/05/13 06:24:01;;;;;;;;;7.67;7.67;;;;;25.24;40.43;102061.09;6304557;22;45363;-74
2023/05/13 06:26:28;;;;;;;;;10.00;8.33;;;;;25.16;40.62;102047.81;6304296;22;45217;-75
2023/05/13 06:28:54;;;;;;;;;8.00;8.00;;;;;25.20;40.24;102058.94;6304134;22;45270;-75
2023/05/13 06:31:19;;;;;;;;;10.67;7.33;;;;;25.26;40.23;102071.59;6303585;22;45306;-75
2023/05/13 06:33:44;;;;;;;;;9.00;9.00;;;;;25.13;40.35;102051.66;6303870;22;46237;-74
2023/05/13 06:36:10;;;;;;;;;8.00;6.67;;;;;25.21;40.54;102071.28;6303726;22;45340;-74
2023/05/13 06:38:35;;;;;;;;;8.00;7.33;;;;;25.20;40.35;102066.94;6304545;22;45300;-74
2023/05/13 06:41:01;;;;;;;;;8.33;7.67;;;;;25.06;40.25;102038.19;6304492;22;45328;-75
2023/05/13 06:43:26;;;;;;;;;9.00;9.00;;;;;25.17;40.47;102068.09;6304330;22;45287;-75
2023/05/13 06:45:51;;;;;;;;;8.67;8.67;;;;;25.22;40.38;102076.41;6303184;22;45359;-75
2023/05/13 06:48:17;;;;;;;;;7.00;7.00;;;;;25.20;40.63;102073.09;6304606;22;45316;-75
2023/05/13 06:50:42;;;;;;;;;9.67;9.67;;;;;25.22;40.25;102081.75;6303874;22;45288;-75
2023/05/13 06:53:10;;;;;;;;;10.00;9.00;;;;;24.81;40.49;102018.78;6304175;22;46043;-75
2023/05/13 06:55:40;;;;;;;;;7.33;7.33;;;;;25.21;40.39;102087.25;6303908;22;45299;-74
2023/05/13 06:58:07;;;;;;;;;8.33;8.33;;;;;25.18;40.50;102083.94;6303963;22;45298;-75
2023/05/13 07:00:36;;;;;;;;;9.33;8.33;;;;;25.19;40.39;102087.41;6303244;22;45198;-74
2023/05/13 07:03:02;;;;;;;;;7.00;7.00;;;;;24.89;40.49;102036.56;6303659;22;46929;-74
2023/05/13 07:05:27;;;;;;;;;9.00;9.00;;;;;25.18;40.48;102091.94;6302555;22;45304;-74
2023/05/13 07:07:53;;;;;;;;;8.00;8.00;;;;;25.20;40.44;102093.56;6303807;22;45377;-74
2023/05/13 07:10:18;;;;;;;;;10.00;8.33;;;;;25.15;40.35;102081.59;6303024;22;45312;-75
2023/05/13 07:12:43;;;;;;;;;7.00;7.00;;;;;25.11;40.51;102072.28;6301540;22;47974;-75
2023/05/13 07:15:09;;;;;;;;;10.00;8.00;;;;;25.09;40.37;102070.78;6304542;22;45279;-77
2023/05/13 07:17:35;;;;;;;;;10.33;9.00;;;;;25.17;40.27;102092.06;6305379;22;45295;-77
2023/05/13 07:20:00;;;;;;;;;9.33;8.00;;;;;24.94;40.75;102051.03;6305266;22;45197;-74
2023/05/13 07:22:26;;;;;;;;;18.25;14.00;;;;;25.21;40.03;102101.41;6304840;22;46098;-74
2023/05/13 07:24:52;;;;;;;;;13.50;12.25;;;;;25.09;40.12;102084.09;6303596;22;45777;-75
2023/05/13 07:27:18;;;;;;;;;16.50;13.25;;;;;25.13;39.28;102101.41;6302801;22;45350;-74
2023/05/13 07:29:43;;;;;;;;;16.75;13.75;;;;;24.78;38.36;102048.38;6303588;22;45374;-75
2023/05/13 07:32:08;;;;;;;;;15.00;14.50;;;;;24.87;38.73;102089.13;6304777;22;46180;-74
2023/05/13 07:34:34;;;;;;;;;18.00;16.75;;;;;24.84;38.96;102093.81;6304887;22;45316;-76
2023/05/13 07:36:59;;;;;;;;;21.75;16.75;;;;;24.86;38.65;102106.94;6305282;22;45221;-80
2023/05/13 07:39:25;;;;;;;;;19.50;16.00;;;;;24.81;38.54;102101.28;6305359;22;45451;-79
2023/05/13 07:41:50;;;;;;;;;16.00;15.50;;;;;24.72;38.79;102093.31;6304161;22;47279;-80
2023/05/13 07:44:16;;;;;;;;;17.75;14.75;;;;;24.78;38.55;102098.94;6305420;22;45293;-80
2023/05/13 07:46:41;;;;;;;;;14.00;13.00;;;;;24.76;38.44;102099.13;6305526;22;45364;-80
2023/05/13 07:49:07;;;;;;;;;14.50;13.75;;;;;24.76;38.53;102101.78;6304884;22;45244;-79
2023/05/13 07:51:34;;;;;;;;;14.25;14.25;;;;;24.80;38.77;102100.44;6304861;22;47286;-79
2023/05/13 07:53:59;;;;;;;;;15.25;13.50;;;;;24.75;38.78;102089.47;6305266;22;45324;-79
2023/05/13 07:56:25;;;;;;;;;13.00;13.00;;;;;24.88;38.75;102101.47;6304831;22;45276;-80
2023/05/13 07:58:50;;;;;;;;;16.25;12.00;;;;;24.91;38.73;102117.91;6305027;22;45285;-85
2023/05/13 08:01:15;;;;;;;;;14.50;14.00;;;;;24.93;38.79;102115.09;6304991;22;45883;-83
2023/05/13 08:03:41;;;;;;;;;12.75;12.00;;;;;24.89;38.78;102100.44;6305564;22;45843;-83
2023/05/13 08:06:06;;;;;;;;;14.00;13.75;;;;;24.94;38.95;102108.75;6305780;22;45390;-83
2023/05/13 08:08:32;;;;;;;;;15.50;12.25;;;;;24.99;38.84;102117.06;6305011;22;45217;-83
2023/05/13 08:10:57;;;;;;;;;11.00;10.33;;;;;24.88;39.08;102096.13;6304390;22;46117;-83
2023/05/13 08:13:23;;;;;;;;;18.00;14.75;;;;;24.94;38.85;102100.75;6305280;22;45245;-84
2023/05/13 08:15:48;;;;;;;;;14.25;10.75;;;;;24.99;38.88;102105.56;6304506;22;45241;-84
2023/05/13 08:18:14;;;;;;;;;18.67;14.67;;;;;25.06;38.42;102117.22;6306243;22;45223;-84
2023/05/13 08:20:39;;;;;;;;;13.50;13.00;;;;;25.01;39.02;102107.09;6304722;22;47230;-84
2023/05/13 08:23:05;;;;;;;;;12.75;12.75;;;;;25.08;38.91;102112.59;6305430;22;45189;-85
2023/05/13 08:25:30;;;;;;;;;13.00;11.00;;;;;25.00;39.24;102108.09;6304443;22;45181;-85
2023/05/13 08:27:56;;;;;;;;;15.25;12.50;;;;;25.11;38.92;102127.41;6303608;22;45455;-84
2023/05/13 08:30:21;;;;;;;;;11.00;9.25;;;;;25.07;38.71;102125.06;6305151;22;45836;-84
2023/05/13 08:32:47;;;;;;;;;10.50;10.25;;;;;25.08;39.06;102109.94;6305145;22;45177;-84
2023/05/13 08:35:12;;;;;;;;;10.33;10.33;;;;;25.06;38.94;102115.41;6305538;22;45488;-84
2023/05/13 08:37:37;;;;;;;;;13.25;10.50;;;;;25.07;38.80;102118.91;6305116;22;45273;-83
2023/05/13 08:40:03;;;;;;;;;14.50;14.00;;;;;25.15;38.86;102116.22;6304706;22;45329;-84
2023/05/13 08:42:32;;;;;;;;;11.33;10.00;;;;;25.14;38.58;102121.72;6305125;22;45336;-84
2023/05/13 08:44:59;;;;;;;;;14.75;12.75;;;;;25.17;38.86;102124.88;6305424;22;45300;-84
2023/05/13 08:47:31;;;;;;;;;14.75;12.50;;;;;25.19;38.81;102119.38;6304337;22;45323;-84
2023/05/13 08:49:57;;;;;;;;;15.50;11.00;;;;;25.12;38.84;102110.41;6304791;22;47162;-83
2023/05/13 08:52:22;;;;;;;;;15.25;11.50;;;;;25.17;39.33;102110.72;6304723;22;45366;-83
2023/05/13 08:54:48;;;;;;;;;14.25;12.50;;;;;25.24;38.81;102117.03;6304823;22;45302;-84
2023/05/13 08:57:13;;;;;;;;;13.25;10.75;;;;;25.27;38.61;102126.50;6305128;22;45463;-84
2023/05/13 08:59:39;;;;;;;;;13.75;11.25;;;;;25.21;38.65;102106.72;6302979;22;49495;-83
2023/05/13 09:02:05;;;;;;;;;16.00;11.75;;;;;25.31;38.91;102122.50;6305100;22;45537;-83
2023/05/13 09:04:36;;;;;;;;;11.25;10.25;;;;;25.25;39.07;102104.53;6305374;22;45276;-82
2023/05/13 09:07:03;;;;;;;;;12.00;10.75;;;;;25.22;38.65;102091.56;6304517;22;45394;-82
2023/05/13 09:09:29;;;;;;;;;7.00;5.50;;;;;25.39;38.91;102113.66;6304375;22;45252;-82
2023/05/13 09:11:54;;;;;;;;;11.00;8.25;;;;;25.38;38.82;102102.16;6304545;22;45451;-83
2023/05/13 09:14:20;;;;;;;;;9.25;9.25;;;;;25.31;38.69;102079.06;6305577;22;45659;-83
2023/05/13 09:16:46;;;;;;;;;11.75;11.00;;;;;25.50;39.03;102118.59;6305107;22;45443;-83
2023/05/13 09:19:12;;;;;;;;;15.75;13.50;;;;;25.52;38.73;102108.63;6304840;22;45908;-83
2023/05/13 09:21:38;;;;;;;;;10.67;10.67;;;;;25.54;38.57;102115.59;6305110;22;45301;-84
2023/05/13 09:24:17;;;;;;;;;11.75;10.75;;;;;25.47;39.04;102102.97;6304932;22;45340;-85
2023/05/13 09:26:44;;;;;;;;;9.00;9.00;;;;;25.57;38.91;102121.41;6305158;22;45182;-84
2023/05/13 09:29:16;;;;;;;;;14.25;12.75;;;;;25.59;38.76;102118.56;6305100;22;45214;-83
2023/05/13 09:31:47;;;;;;;;;12.25;9.50;;;;;25.59;38.38;102118.56;6305177;22;45246;-83
2023/05/13 09:34:13;;;;;;;;;11.00;10.00;;;;;25.62;38.85;102124.38;6304826;22;45322;-83
2023/05/13 09:36:38;;;;;;;;;18.25;15.75;;;;;25.64;38.88;102116.19;6304791;22;45316;-83
2023/05/13 09:39:04;;;;;;;;;12.25;12.25;;;;;25.66;38.58;102116.06;6304740;22;45255;-83
2023/05/13 09:41:30;;;;;;;;;11.00;10.00;;;;;25.70;38.65;102120.00;6304973;22;45273;-83
2023/05/13 09:43:57;;;;;;;;;13.25;11.75;;;;;25.71;38.77;102109.16;6305147;22;45266;-83
2023/05/13 09:46:24;;;;;;;;;10.00;10.00;;;;;25.79;38.37;102116.31;6304952;22;45225;-83
2023/05/13 09:48:54;;;;;;;;;10.50;10.25;;;;;25.81;38.79;102119.66;6304859;22;45444;-83
2023/05/13 09:51:29;;;;;;;;;10.00;10.00;;;;;25.83;38.65;102114.97;6304494;22;45340;-82
2023/05/13 09:54:02;;;;;;;;;12.50;10.50;;;;;25.72;38.40;102084.19;6304465;22;45370;-83
2023/05/13 09:56:29;;;;;;;;;11.75;11.50;;;;;25.88;38.71;102111.78;6304709;22;45551;-83
2023/05/13 09:58:55;;;;;;;;;15.00;10.67;;;;;25.87;38.49;102103.97;6304354;22;46349;-83
2023/05/13 10:01:21;;;;;;;;;13.00;11.50;;;;;25.80;38.39;102090.50;6305034;22;45264;-83
2023/05/13 10:03:47;;;;;;;;;11.00;11.00;;;;;25.90;38.61;102093.78;6304674;22;45257;-83
2023/05/13 10:06:17;;;;;;;;;12.75;12.00;;;;;25.92;38.23;102098.91;6304224;22;45241;-82
2023/05/13 10:08:46;;;;;;;;;13.50;11.50;;;;;25.93;38.58;102098.75;6303912;22;47021;-82
2023/05/13 10:11:14;;;;;;;;;15.50;13.50;;;;;25.94;38.29;102100.41;6304247;22;45229;-82
2023/05/13 10:13:40;;;;;;;;;11.00;11.00;;;;;25.88;38.48;102093.13;6304307;22;45272;-81
2023/05/13 10:16:06;;;;;;;;;12.33;10.33;;;;;25.75;38.65;102069.72;6304877;22;45288;-82
2023/05/13 10:18:32;;;;;;;;;10.67;9.00;;;;;25.94;38.32;102092.41;6304028;22;46160;-83
2023/05/13 10:20:58;;;;;;;;;14.00;12.25;;;;;26.02;38.28;102093.38;6304463;22;45358;-82
2023/05/13 10:23:24;;;;;;;;;15.00;11.33;;;;;25.99;37.94;102085.72;6304315;22;45309;-82
2023/05/13 10:25:51;;;;;;;;;11.00;10.00;;;;;26.04;38.42;102088.69;6304813;22;45511;-82
2023/05/13 10:28:18;;;;;;;;;10.00;9.33;;;;;25.95;38.08;102072.75;6304020;22;46924;-82
2023/05/13 10:30:43;;;;;;;;;12.00;8.33;;;;;26.06;38.24;102076.00;6304624;22;45343;-81
2023/05/13 10:33:09;;;;;;;;;11.33;10.33;;;;;26.06;38.26;102084.84;6304286;22;45344;-82
2023/05/13 10:35:44;;;;;;;;;12.00;10.00;;;;;26.00;37.90;102066.88;6304493;22;45182;-82
2023/05/13 10:38:20;;;;;;;;;11.25;9.50;;;;;26.06;38.12;102074.16;6304300;22;45231;-82
2023/05/13 10:41:12;;;;;;;;;9.67;9.67;;;;;26.06;38.19;102076.00;6304224;22;45173;-82
2023/05/13 10:43:38;;;;;;;;;10.25;10.25;;;;;26.06;38.36;102079.50;6303994;22;45281;-82
2023/05/13 10:46:06;;;;;;;;;15.00;12.25;;;;;26.07;38.16;102075.00;6304530;22;45224;-83
2023/05/13 10:48:42;;;;;;;;;14.00;13.00;;;;;26.07;38.64;102075.81;6303928;22;46359;-83
2023/05/13 10:51:12;;;;;;;;;12.00;11.00;;;;;26.05;38.73;102071.66;6304791;22;45589;-82
2023/05/13 10:53:47;;;;;;;;;12.75;10.25;;;;;26.02;38.58;102064.03;6305969;22;45267;-82
2023/05/13 10:56:13;;;;;;;;;10.50;8.25;;;;;26.05;38.39;102069.00;6305794;22;45214;-83
2023/05/13 10:58:39;;;;;;;;;12.67;12.67;;;;;25.79;38.21;102033.69;6305363;22;46133;-83
2023/05/13 11:01:15;;;;;;;;;6.67;6.67;;;;;26.05;38.44;102072.50;6305921;22;45266;-84
2023/05/13 11:03:41;;;;;;;;;11.33;11.33;;;;;26.03;38.21;102068.34;6305987;22;45311;-83
2023/05/13 11:06:12;;;;;;;;;13.33;11.67;;;;;26.06;38.66;102076.00;6304600;22;45505;-83
2023/05/13 11:08:41;;;;;;;;;11.00;10.00;;;;;26.07;38.29;102064.34;6305155;22;45262;-83
2023/05/13 11:11:25;;;;;;;;;12.25;11.00;;;;;26.07;38.66;102067.00;6305880;22;45236;-83
2023/05/13 11:13:54;;;;;;;;;13.00;11.50;;;;;26.07;38.49;102065.13;6305333;22;45182;-83